createdAt,value
2023-04-15T00:03:36.249Z,10.90
2023-04-15T00:08:40.805Z,10.72
2023-04-15T00:13:46.078Z,10.63
2023-04-15T00:18:49.878Z,10.66
2023-04-15T00:23:54.334Z,10.70
2023-04-15T00:28:58.732Z,10.77
2023-04-15T00:34:04.019Z,10.91
2023-04-15T00:39:07.914Z,11.01
2023-04-15T00:44:11.943Z,11.15
2023-04-15T00:49:16.486Z,11.18
2023-04-15T00:54:20.421Z,11.20
2023-04-15T00:59:24.645Z,11.20
2023-04-15T01:04:28.814Z,11.00
2023-04-15T01:09:33.719Z,10.92
2023-04-15T01:14:37.547Z,10.86
2023-04-15T01:19:41.770Z,10.92
2023-04-15T01:24:52.560Z,10.94
2023-04-15T01:29:56.278Z,10.95
2023-04-15T01:35:00.314Z,11.02
2023-04-15T01:40:05.354Z,10.97
2023-04-15T01:45:11.102Z,10.91
2023-04-15T01:50:16.613Z,10.69
2023-04-15T01:55:23.526Z,10.70
2023-04-15T02:00:29.535Z,10.61
2023-04-15T02:05:35.259Z,10.44
2023-04-15T02:10:44.068Z,10.42
2023-04-15T02:15:52.847Z,10.42
2023-04-15T02:20:59.115Z,10.52
2023-04-15T02:26:04.096Z,10.49
2023-04-15T02:31:09.916Z,10.32
2023-04-15T02:36:14.984Z,10.05
2023-04-15T02:41:26.362Z,10.10
2023-04-15T02:46:32.482Z,10.12
2023-04-15T02:51:36.556Z,10.15
2023-04-15T02:56:41.391Z,10.10
2023-04-15T03:03:00.835Z,10.11
2023-04-15T03:08:05.049Z,9.77
2023-04-15T03:13:09.569Z,9.68
2023-04-15T03:18:13.477Z,9.66
2023-04-15T03:23:18.453Z,9.74
2023-04-15T03:28:23.677Z,9.77
2023-04-15T03:33:30.369Z,9.93
2023-04-15T03:38:35.319Z,9.97
2023-04-15T03:43:39.135Z,9.75
2023-04-15T03:48:43.059Z,9.80
2023-04-15T03:53:47.403Z,9.80
2023-04-15T03:58:51.427Z,9.67
2023-04-15T04:03:55.498Z,9.64
2023-04-15T04:08:59.584Z,9.44
2023-04-15T04:14:04.427Z,9.18
2023-04-15T04:19:08.557Z,9.26
2023-04-15T04:24:12.799Z,9.32
2023-04-15T04:29:17.314Z,9.21
2023-04-15T04:34:22.176Z,9.08
2023-04-15T04:39:26.314Z,9.18
2023-04-15T04:44:30.041Z,9.20
2023-04-15T04:49:34.158Z,9.14
2023-04-15T04:54:38.584Z,9.29
2023-04-15T04:59:43.234Z,9.49
2023-04-15T05:04:47.861Z,9.55
2023-04-15T05:09:51.306Z,9.71
2023-04-15T05:14:54.510Z,9.52
2023-04-15T05:19:57.792Z,9.68
2023-04-15T05:25:01.107Z,9.84
2023-04-15T05:30:04.715Z,10.68
2023-04-15T05:35:08.860Z,11.61
2023-04-15T05:40:13.409Z,13.04
2023-04-15T05:45:17.203Z,13.82
2023-04-15T05:50:21.511Z,14.05
2023-04-15T05:55:24.791Z,14.45
2023-04-15T06:00:28.015Z,15.08
2023-04-15T06:05:31.278Z,15.01
2023-04-15T06:10:36.973Z,15.10
2023-04-15T06:15:41.477Z,14.83
2023-04-15T06:20:44.795Z,14.37
2023-04-15T06:25:48.299Z,15.28
2023-04-15T06:30:51.816Z,15.79
2023-04-15T06:35:55.173Z,14.81
2023-04-15T06:40:58.626Z,14.52
2023-04-15T06:46:02.511Z,13.71
2023-04-15T06:51:06.335Z,13.52
2023-04-15T06:56:10.133Z,13.87
2023-04-15T07:01:14.414Z,13.83
2023-04-15T07:06:17.790Z,13.98
2023-04-15T07:11:21.408Z,13.96
2023-04-15T07:16:24.764Z,13.78
2023-04-15T07:21:28.484Z,13.65
2023-04-15T07:26:31.846Z,13.51
2023-04-15T07:31:35.315Z,13.59
2023-04-15T07:36:38.581Z,13.60
2023-04-15T07:41:41.994Z,13.93
2023-04-15T07:46:46.368Z,13.96
2023-04-15T07:51:49.637Z,14.38
2023-04-15T07:56:52.910Z,14.40
2023-04-15T08:01:57.127Z,14.64
2023-04-15T08:07:00.927Z,14.35
2023-04-15T08:12:04.526Z,15.11
2023-04-15T08:17:07.869Z,15.55
2023-04-15T08:22:17.708Z,15.59
2023-04-15T08:27:22.380Z,15.82
2023-04-15T08:32:27.072Z,16.02
2023-04-15T08:37:30.502Z,16.87
2023-04-15T08:42:43.693Z,16.56
2023-04-15T08:47:53.244Z,16.63
2023-04-15T08:53:00.045Z,16.02
2023-04-15T08:58:03.814Z,15.70
2023-04-15T09:03:09.110Z,14.84
2023-04-15T09:08:12.937Z,14.43
2023-04-15T09:13:16.254Z,14.43
2023-04-15T09:18:30.241Z,14.33
2023-04-15T09:23:34.316Z,14.19
2023-04-15T09:28:43.901Z,14.32
2023-04-15T09:33:57.679Z,14.70
2023-04-15T09:39:02.019Z,15.33
2023-04-15T09:44:05.700Z,15.78
2023-04-15T09:49:12.073Z,15.34
2023-04-15T09:54:21.962Z,15.19
2023-04-15T09:59:25.399Z,15.17
2023-04-15T10:04:29.929Z,15.50
2023-04-15T10:09:35.100Z,15.72
2023-04-15T10:14:39.090Z,15.81
2023-04-15T10:19:43.039Z,15.81
2023-04-15T10:24:47.565Z,15.84
2023-04-15T10:29:54.891Z,15.73
2023-04-15T10:34:58.818Z,15.50
2023-04-15T10:40:03.768Z,14.87
2023-04-15T10:45:17.069Z,14.80
2023-04-15T10:50:20.415Z,14.95
2023-04-15T10:55:25.927Z,14.89
2023-04-15T11:00:31.029Z,14.77
2023-04-15T11:05:41.028Z,14.60
2023-04-15T11:10:45.300Z,14.73
2023-04-15T11:15:49.862Z,14.57
2023-04-15T11:20:57.963Z,14.62
2023-04-15T11:26:05.697Z,14.58
2023-04-15T11:31:21.127Z,14.53
2023-04-15T11:36:36.816Z,14.55
2023-04-15T11:41:44.009Z,14.59
2023-04-15T11:46:47.348Z,14.47
2023-04-15T11:51:51.686Z,14.65
2023-04-15T11:56:55.056Z,14.58
2023-04-15T12:01:58.374Z,14.55
2023-04-15T12:07:07.774Z,14.86
2023-04-15T12:12:12.737Z,14.91
2023-04-15T12:17:17.130Z,15.30
2023-04-15T12:22:22.804Z,15.49
2023-04-15T12:27:29.787Z,15.20
2023-04-15T12:32:35.967Z,14.91
2023-04-15T12:37:39.215Z,14.80
2023-04-15T12:42:42.587Z,14.74
2023-04-15T12:47:45.866Z,14.67
2023-04-15T12:52:49.046Z,14.66
2023-04-15T12:57:52.631Z,14.40
2023-04-15T13:02:56.787Z,14.43
2023-04-15T13:08:00.201Z,14.42
2023-04-15T13:13:05.221Z,14.50
2023-04-15T13:18:08.877Z,14.41
2023-04-15T13:23:12.687Z,14.62
2023-04-15T13:28:16.192Z,14.71
2023-04-15T13:33:20.126Z,14.69
2023-04-15T13:38:25.624Z,14.82
2023-04-15T13:43:29.656Z,15.30
2023-04-15T13:48:33.122Z,15.58
2023-04-15T13:53:39.217Z,15.77
2023-04-15T13:58:43.178Z,16.05
2023-04-15T14:03:46.684Z,16.05
2023-04-15T14:08:50.256Z,15.82
2023-04-15T14:13:53.644Z,15.90
2023-04-15T14:18:56.997Z,15.86
2023-04-15T14:24:00.604Z,15.24
2023-04-15T14:29:04.329Z,14.96
2023-04-15T14:34:08.188Z,14.98
2023-04-15T14:39:11.721Z,14.80
2023-04-15T14:44:15.628Z,15.10
2023-04-15T14:49:19.060Z,15.13
2023-04-15T14:54:22.646Z,15.03
2023-04-15T14:59:26.299Z,15.18
2023-04-15T15:04:32.189Z,14.93
2023-04-15T15:09:36.189Z,14.66
2023-04-15T15:14:39.460Z,14.60
2023-04-15T15:19:43.167Z,14.77
2023-04-15T15:24:46.531Z,14.86
2023-04-15T15:29:51.275Z,15.14
2023-04-15T15:34:54.782Z,15.30
2023-04-15T15:39:58.497Z,15.25
2023-04-15T15:45:04.572Z,15.09
2023-04-15T15:50:08.463Z,14.07
2023-04-15T15:55:13.313Z,12.70
2023-04-15T16:00:18.192Z,11.70
2023-04-15T16:05:23.286Z,10.93
2023-04-15T16:10:27.133Z,10.27
2023-04-15T16:15:30.475Z,9.72
2023-04-15T16:20:33.936Z,9.67
2023-04-15T16:25:37.411Z,9.72
2023-04-15T16:30:41.823Z,9.99
2023-04-15T16:35:45.083Z,10.01
2023-04-15T16:40:48.304Z,9.94
2023-04-15T16:45:51.854Z,9.89
2023-04-15T16:50:56.089Z,9.90
2023-04-15T16:55:59.335Z,9.82
2023-04-15T17:01:02.671Z,9.73
2023-04-15T17:06:06.053Z,9.64
2023-04-15T17:11:10.210Z,9.54
2023-04-15T17:16:13.651Z,9.35
2023-04-15T17:21:18.132Z,9.17
2023-04-15T17:26:22.288Z,9.06
2023-04-15T17:31:25.799Z,8.80
2023-04-15T17:36:29.018Z,8.88
2023-04-15T17:41:32.372Z,8.90
2023-04-15T17:46:37.778Z,8.79
2023-04-15T17:51:41.797Z,8.87
2023-04-15T17:56:46.152Z,8.89
2023-04-15T18:01:50.118Z,8.73
2023-04-15T18:06:54.118Z,8.63
2023-04-15T18:11:58.742Z,8.67
2023-04-15T18:17:05.447Z,8.63
2023-04-15T18:22:08.720Z,8.53
2023-04-15T18:27:12.395Z,8.42
2023-04-15T18:32:16.635Z,8.31
2023-04-15T18:37:20.123Z,8.31
2023-04-15T18:42:24.842Z,8.35
2023-04-15T18:47:28.295Z,8.32
2023-04-15T18:52:32.087Z,8.20
2023-04-15T18:57:36.975Z,7.91
2023-04-15T19:02:41.040Z,7.80
2023-04-15T19:07:44.628Z,7.83
2023-04-15T19:12:48.338Z,7.82
2023-04-15T19:17:52.776Z,7.73
2023-04-15T19:22:56.294Z,7.72
2023-04-15T19:28:00.099Z,7.68
2023-04-15T19:33:03.658Z,7.41
2023-04-15T19:38:07.308Z,7.37
2023-04-15T19:43:10.838Z,7.35
2023-04-15T19:48:14.386Z,7.24
2023-04-15T19:53:20.136Z,7.22
2023-04-15T19:58:23.778Z,7.19
2023-04-15T20:03:27.542Z,7.08
2023-04-15T20:08:31.493Z,6.98
2023-04-15T20:13:34.912Z,6.79
2023-04-15T20:18:38.409Z,6.85
2023-04-15T20:23:42.751Z,6.85
2023-04-15T20:28:45.975Z,6.84
2023-04-15T20:33:49.400Z,6.80
2023-04-15T20:38:52.630Z,6.59
2023-04-15T20:43:55.938Z,6.58
2023-04-15T20:48:59.181Z,6.57
2023-04-15T20:54:02.584Z,6.62
2023-04-15T20:59:06.389Z,6.54
2023-04-15T21:04:09.987Z,6.53
2023-04-15T21:09:13.335Z,6.67
2023-04-15T21:14:17.232Z,6.80
2023-04-15T21:19:20.732Z,6.73
2023-04-15T21:24:24.122Z,6.67
2023-04-15T21:29:27.506Z,6.51
2023-04-15T21:34:30.789Z,6.50
2023-04-15T21:39:35.456Z,6.47
2023-04-15T21:44:39.490Z,6.47
2023-04-15T21:49:43.763Z,6.51
2023-04-15T21:54:47.648Z,6.30
2023-04-15T21:59:53.169Z,6.13
2023-04-15T22:04:56.960Z,6.23
2023-04-15T22:10:02.170Z,6.37
2023-04-15T22:15:08.360Z,6.44
2023-04-15T22:20:13.744Z,6.61
2023-04-15T22:25:17.233Z,6.71
2023-04-15T22:30:23.536Z,6.71
2023-04-15T22:35:27.449Z,6.59
2023-04-15T22:40:31.162Z,6.56
2023-04-15T22:45:37.342Z,6.44
2023-04-15T22:50:42.179Z,6.31
2023-04-15T22:55:49.221Z,6.43
2023-04-15T23:00:52.569Z,6.35
2023-04-15T23:05:55.999Z,6.43
2023-04-15T23:11:00.180Z,6.50
2023-04-15T23:16:04.356Z,6.50
2023-04-15T23:21:07.820Z,6.51
2023-04-15T23:26:12.045Z,6.41
2023-04-15T23:31:15.387Z,6.34
2023-04-15T23:36:18.985Z,6.07
2023-04-15T23:41:22.291Z,5.99
2023-04-15T23:46:25.630Z,6.06
2023-04-15T23:51:29.588Z,6.37
2023-04-15T23:56:34.253Z,6.51
